Time;durP1;ratioP1;P1;durP2;ratioP2;P2;SDS_P1;SDS_P2;PMS_P1;PMS_P2;Temp;Humidity;BMP_temperature;BMP_pressure;BME280_temperature;BME280_humidity;BME280_pressure;Samples;Min_cycle;Max_cycle;Signal;HPM_P1;HPM_P2
2022/05/31 00:00:09;;;;;;;12.13;7.20;;;;;;;17.60;99.98;99087.34;5091576;28;20223;-82
2022/05/31 00:02:35;;;;;;;9.37;7.17;;;;;;;17.60;100.00;99089.94;5091299;28;20643;-81
2022/05/31 00:05:02;;;;;;;11.87;7.10;;;;;;;17.57;100.00;99087.63;5091567;28;20216;-78
2022/05/31 00:07:28;;;;;;;13.73;6.90;;;;;;;17.56;100.00;99083.44;5091390;28;20227;-79
2022/05/31 00:09:54;;;;;;;9.73;7.30;;;;;;;17.53;100.00;99086.31;5091056;28;20266;-82
2022/05/31 00:12:20;;;;;;;14.60;7.93;;;;;;;17.53;100.00;99086.31;5091255;28;20232;-78
2022/05/31 00:14:47;;;;;;;9.07;7.40;;;;;;;17.45;100.00;99094.84;5091354;28;20216;-81
2022/05/31 00:17:13;;;;;;;10.83;7.23;;;;;;;17.38;100.00;99092.06;5091244;28;20237;-78
2022/05/31 00:19:40;;;;;;;12.67;7.13;;;;;;;17.46;100.00;99095.69;5091242;28;20234;-79
2022/05/31 00:22:09;;;;;;;9.10;7.10;;;;;;;17.47;100.00;99102.47;5091317;28;20786;-78
2022/05/31 00:24:37;;;;;;;12.33;7.40;;;;;;;17.44;100.00;99101.00;5091010;28;20219;-78
2022/05/31 00:27:04;;;;;;;11.77;7.90;;;;;;;17.44;100.00;99106.16;5091015;28;20264;-82
2022/05/31 00:29:31;;;;;;;10.03;7.33;;;;;;;17.36;100.00;99104.34;5091028;28;20216;-78
2022/05/31 00:32:00;;;;;;;11.87;7.47;;;;;;;17.36;100.00;99100.94;5091153;28;20268;-79
2022/05/31 00:34:27;;;;;;;12.47;7.37;;;;;;;17.31;100.00;99109.16;5090857;28;20808;-80
2022/05/31 00:36:53;;;;;;;13.07;7.80;;;;;;;17.34;100.00;99111.44;5090853;28;20630;-78
2022/05/31 00:39:20;;;;;;;11.27;7.17;;;;;;;17.41;100.00;99099.50;5090743;28;20237;-82
2022/05/31 00:41:57;;;;;;;12.73;7.47;;;;;;;17.43;100.00;99095.00;5090889;28;20231;-78
2022/05/31 00:44:27;;;;;;;11.70;6.90;;;;;;;17.43;100.00;99097.59;5090747;28;20227;-82
2022/05/31 00:46:57;;;;;;;11.30;7.20;;;;;;;17.42;100.00;99100.31;5090823;28;20680;-78
2022/05/31 00:49:28;;;;;;;10.80;7.30;;;;;;;17.41;100.00;99091.75;5090664;28;20214;-82
2022/05/31 00:51:57;;;;;;;11.43;6.90;;;;;;;17.38;100.00;99091.28;5090636;28;20236;-81
2022/05/31 00:54:26;;;;;;;12.30;7.30;;;;;;;17.34;100.00;99095.13;5090590;28;20207;-81
2022/05/31 00:56:55;;;;;;;9.97;7.30;;;;;;;17.29;100.00;99087.84;5090538;28;20705;-79
2022/05/31 00:59:25;;;;;;;10.70;7.57;;;;;;;17.31;100.00;99093.66;5090354;28;20843;-81
2022/05/31 01:01:53;;;;;;;12.97;7.13;;;;;;;17.30;100.00;99089.44;5090628;28;20837;-79
2022/05/31 01:04:26;;;;;;;9.13;7.03;;;;;;;17.28;100.00;99081.06;5090628;28;20234;-78
2022/05/31 01:06:55;;;;;;;11.70;7.60;;;;;;;17.27;100.00;99074.25;5090377;28;20243;-81
2022/05/31 01:09:21;;;;;;;11.70;7.53;;;;;;;17.20;100.00;99093.94;5090530;28;20221;-81
2022/05/31 01:11:48;;;;;;;12.87;8.13;;;;;;;17.11;100.00;99087.09;5090186;28;20233;-81
2022/05/31 01:14:14;;;;;;;10.37;8.13;;;;;;;17.09;100.00;99089.00;5090315;28;20218;-82
2022/05/31 01:16:53;;;;;;;15.57;8.87;;;;;;;17.07;100.00;99088.34;5090052;28;20237;-78
2022/05/31 01:22:00;;;;;;;15.20;9.40;;;;;;;17.08;100.00;99089.97;5089438;28;20237;-81
2022/05/31 01:24:28;;;;;;;12.63;9.70;;;;;;;17.13;100.00;99087.72;5090068;28;20207;-79
2022/05/31 01:27:01;;;;;;;12.47;9.00;;;;;;;17.15;100.00;99075.47;5090255;28;20868;-81
2022/05/31 01:29:32;;;;;;;11.70;8.97;;;;;;;17.11;100.00;99080.16;5090277;28;20216;-80
2022/05/31 01:32:01;;;;;;;13.03;9.40;;;;;;;17.03;100.00;99081.88;5090289;28;20235;-79
2022/05/31 01:34:34;;;;;;;12.13;8.70;;;;;;;17.01;100.00;99078.63;5090114;28;20604;-79
2022/05/31 01:37:02;;;;;;;14.33;9.23;;;;;;;16.95;100.00;99080.84;5089922;28;20239;-80
2022/05/31 01:39:34;;;;;;;12.07;9.50;;;;;;;16.91;100.00;99091.66;5090195;28;20706;-81
2022/05/31 01:42:08;;;;;;;14.30;9.40;;;;;;;16.89;100.00;99107.28;5089845;28;20736;-78
2022/05/31 01:44:38;;;;;;;13.97;9.10;;;;;;;16.88;100.00;99121.16;5089860;28;20213;-81
2022/05/31 01:47:05;;;;;;;15.37;8.70;;;;;;;17.00;100.00;99118.34;5089742;28;20239;-80
2022/05/31 01:49:34;;;;;;;15.90;9.20;;;;;;;17.01;100.00;99120.75;5089738;28;20229;-80
2022/05/31 01:52:02;;;;;;;14.60;9.27;;;;;;;16.97;100.00;99120.25;5089747;28;20270;-78
2022/05/31 01:54:28;;;;;;;15.87;9.03;;;;;;;16.91;100.00;99128.59;5089866;28;20287;-78
2022/05/31 01:56:59;;;;;;;15.43;9.27;;;;;;;16.86;100.00;99127.44;5088540;28;20603;-81
2022/05/31 01:59:27;;;;;;;13.07;9.40;;;;;;;16.76;100.00;99132.69;5089759;28;20279;-78
2022/05/31 02:01:54;;;;;;;13.70;9.40;;;;;;;16.74;100.00;99130.22;5089499;28;20288;-78
2022/05/31 02:04:20;;;;;;;10.87;8.37;;;;;;;16.73;100.00;99138.13;5089534;28;20224;-78
2022/05/31 02:06:46;;;;;;;13.10;9.20;;;;;;;16.61;100.00;99144.44;5089294;28;20230;-78
2022/05/31 02:09:15;;;;;;;13.43;9.50;;;;;;;16.65;100.00;99151.75;5089454;28;20213;-78
2022/05/31 02:11:41;;;;;;;14.97;9.57;;;;;;;16.63;100.00;99145.94;5089513;28;20685;-78
2022/05/31 02:14:08;;;;;;;15.97;9.87;;;;;;;16.63;100.00;99147.72;5089497;28;20269;-78
2022/05/31 02:16:34;;;;;;;15.93;9.57;;;;;;;16.59;100.00;99146.38;5089452;28;20311;-78
2022/05/31 02:19:18;;;;;;;13.73;9.37;;;;;;;16.59;100.00;99146.38;5089277;28;20226;-80
2022/05/31 02:21:44;;;;;;;11.80;8.97;;;;;;;16.58;100.00;99144.75;5089256;28;20759;-79
2022/05/31 02:24:13;;;;;;;12.77;9.43;;;;;;;16.55;100.00;99155.38;5089398;28;20643;-78
2022/05/31 02:26:41;;;;;;;14.47;10.13;;;;;;;16.46;100.00;99164.81;5089284;28;20234;-80
2022/05/31 02:29:08;;;;;;;15.77;10.03;;;;;;;16.49;100.00;99167.94;5089074;28;20218;-79
2022/05/31 02:31:35;;;;;;;15.67;9.87;;;;;;;16.36;100.00;99177.78;5089203;28;20327;-78
2022/05/31 02:34:02;;;;;;;14.67;10.23;;;;;;;16.31;100.00;99174.81;5089192;28;20205;-78
2022/05/31 02:36:28;;;;;;;15.40;10.33;;;;;;;16.22;100.00;99179.06;5089237;28;20735;-77
2022/05/31 02:38:55;;;;;;;19.27;10.40;;;;;;;16.28;100.00;99175.13;5088922;28;20234;-79
2022/05/31 02:41:21;;;;;;;16.77;10.50;;;;;;;16.29;100.00;99171.59;5088817;28;20238;-80
2022/05/31 02:43:49;;;;;;;17.10;11.10;;;;;;;16.25;100.00;99175.41;5088901;28;20247;-78
2022/05/31 02:46:16;;;;;;;16.43;10.80;;;;;;;16.29;100.00;99181.91;5089038;28;20234;-80
2022/05/31 02:48:42;;;;;;;14.83;10.43;;;;;;;16.31;100.00;99179.97;5089049;28;20573;-78
2022/05/31 02:51:08;;;;;;;16.03;10.80;;;;;;;16.22;100.00;99173.91;5089072;28;20288;-78
2022/05/31 02:53:35;;;;;;;17.30;10.60;;;;;;;16.25;100.00;99175.41;5088885;28;20210;-79
2022/05/31 02:56:01;;;;;;;17.07;11.00;;;;;;;16.28;100.00;99175.13;5089016;28;20617;-80
2022/05/31 02:58:27;;;;;;;18.10;11.20;;;;;;;16.25;100.00;99171.06;5088472;28;20634;-78
2022/05/31 03:00:54;;;;;;;17.37;11.33;;;;;;;16.22;100.00;99170.53;5088665;28;20742;-78
2022/05/31 03:03:21;;;;;;;16.77;11.07;;;;;;;16.22;100.00;99175.69;5088592;28;20217;-79
2022/05/31 03:05:47;;;;;;;18.83;10.43;;;;;;;16.30;100.00;99162.88;5088822;28;20320;-78
2022/05/31 03:08:13;;;;;;;16.83;10.50;;;;;;;16.32;100.00;99163.56;5088333;28;20221;-78
2022/05/31 03:10:44;;;;;;;16.03;10.17;;;;;;;16.40;100.00;99163.63;5088481;28;20242;-78
2022/05/31 03:13:11;;;;;;;17.27;10.33;;;;;;;16.49;100.00;99152.44;5088827;28;20645;-79
2022/05/31 03:15:38;;;;;;;14.63;10.03;;;;;;;16.50;100.00;99154.06;5088723;28;20719;-79
2022/05/31 03:18:09;;;;;;;14.10;10.60;;;;;;;16.51;100.00;99155.66;5088290;28;20738;-79
2022/05/31 03:20:40;;;;;;;18.23;10.63;;;;;;;16.57;100.00;99164.59;5088441;28;20500;-79
2022/05/31 03:23:10;;;;;;;16.83;10.47;;;;;;;16.64;100.00;99162.22;5088509;28;20289;-80
2022/05/31 03:25:39;;;;;;;18.20;10.63;;;;;;;16.71;100.00;99160.69;5088226;28;20742;-80
2022/05/31 03:28:07;;;;;;;18.37;10.63;;;;;;;16.76;100.00;99168.84;5088673;28;20211;-80
2022/05/31 03:30:36;;;;;;;17.03;11.23;;;;;;;16.75;100.00;99173.16;5088281;28;20240;-79
2022/05/31 03:33:03;;;;;;;17.87;11.37;;;;;;;16.87;100.00;99175.53;5088472;28;20238;-81
2022/05/31 03:35:30;;;;;;;16.47;11.07;;;;;;;16.92;100.00;99171.53;5088481;28;20218;-81
2022/05/31 03:37:56;;;;;;;19.90;11.40;;;;;;;16.99;100.00;99174.34;5088423;28;20226;-81
2022/05/31 03:43:06;;;;;;;17.47;10.43;;;;;;;17.16;100.00;99170.09;5088280;28;20341;-81
2022/05/31 03:45:33;;;;;;;16.80;10.63;;;;;;;17.21;100.00;99178.22;5088175;28;20617;-81
2022/05/31 03:48:00;;;;;;;15.07;10.23;;;;;;;17.27;100.00;99172.44;5088267;28;20210;-78
2022/05/31 03:50:26;;;;;;;13.93;9.93;;;;;;;17.31;100.00;99183.31;5088185;28;20579;-80
2022/05/31 03:52:53;;;;;;;16.10;11.20;;;;;;;17.28;100.00;99189.59;5088125;28;20233;-81
2022/05/31 03:55:20;;;;;;;16.93;10.47;;;;;;;17.32;100.00;99188.31;5087857;28;20214;-81
2022/05/31 03:57:47;;;;;;;16.43;11.20;;;;;;;17.47;100.00;99198.09;5088126;28;20268;-81
2022/05/31 04:00:14;;;;;;;16.70;10.93;;;;;;;17.63;100.00;99193.84;5087847;28;20216;-78
2022/05/31 04:02:40;;;;;;;15.70;10.17;;;;;;;17.73;100.00;99193.72;5088070;28;20213;-81
2022/05/31 04:05:07;;;;;;;14.80;10.23;;;;;;;17.85;100.00;99192.50;5088137;28;20671;-81
2022/05/31 04:07:35;;;;;;;15.87;10.23;;;;;;;18.01;100.00;99193.56;5087713;28;20241;-78
2022/05/31 04:10:03;;;;;;;16.23;10.67;;;;;;;18.17;100.00;99191.00;5087892;28;20221;-81
2022/05/31 04:12:29;;;;;;;17.40;10.27;;;;;;;18.31;100.00;99192.19;5088032;28;20244;-79
2022/05/31 04:14:56;;;;;;;16.77;10.00;;;;;;;18.49;100.00;99197.25;5088012;28;20230;-81
2022/05/31 04:17:22;;;;;;;18.77;10.80;;;;;;;18.54;100.00;99206.16;5087413;28;20234;-78
2022/05/31 04:19:49;;;;;;;15.67;10.53;;;;;;;18.66;100.00;99196.31;5087970;28;20245;-81
2022/05/31 04:22:15;;;;;;;15.10;10.43;;;;;;;18.78;100.00;99202.81;5091025;28;20241;-79
2022/05/31 04:24:42;;;;;;;16.00;11.43;;;;;;;18.89;100.00;99198.31;5091198;28;20606;-78
2022/05/31 04:27:15;;;;;;;17.20;10.23;;;;;;;19.00;100.00;99203.16;5091023;28;20319;-81
2022/05/31 04:29:41;;;;;;;14.23;10.03;;;;;;;19.07;100.00;99203.31;5091106;28;20220;-78
2022/05/31 04:32:07;;;;;;;14.47;10.03;;;;;;;19.17;100.00;99199.59;5091059;28;20235;-81
2022/05/31 04:34:34;;;;;;;14.57;9.43;;;;;;;19.28;100.00;99198.44;5091043;28;20750;-81
2022/05/31 04:37:00;;;;;;;15.03;9.73;;;;;;;19.38;100.00;99206.88;5090979;28;20240;-79
2022/05/31 04:39:26;;;;;;;15.13;9.67;;;;;;;19.54;100.00;99206.00;5091046;28;20270;-79
2022/05/31 04:41:53;;;;;;;14.07;9.83;;;;;;;19.71;99.67;99206.00;5090768;28;20233;-81
2022/05/31 04:44:20;;;;;;;13.93;9.30;;;;;;;19.85;99.08;99213.09;5090656;28;20277;-81
2022/05/31 04:46:48;;;;;;;14.00;9.20;;;;;;;19.98;99.25;99212.56;5090881;28;20317;-80
2022/05/31 04:49:14;;;;;;;14.40;9.23;;;;;;;20.08;98.38;99219.19;5090951;28;20543;-81
2022/05/31 04:51:41;;;;;;;17.73;9.80;;;;;;;20.21;97.45;99217.81;5090619;28;20233;-82
2022/05/31 04:54:08;;;;;;;13.40;9.43;;;;;;;20.33;97.15;99219.06;5090596;28;20216;-79
2022/05/31 04:56:34;;;;;;;15.20;9.37;;;;;;;20.40;96.78;99227.81;5090714;28;20285;-79
2022/05/31 04:59:00;;;;;;;13.50;9.07;;;;;;;20.50;96.78;99218.00;5090621;28;20254;-81
2022/05/31 05:01:27;;;;;;;12.03;8.73;;;;;;;20.58;96.29;99220.56;5090572;28;20237;-81
2022/05/31 05:03:54;;;;;;;14.93;9.20;;;;;;;20.67;95.73;99225.72;5090717;28;20232;-78
2022/05/31 05:06:22;;;;;;;14.27;9.13;;;;;;;20.67;95.33;99230.91;5090344;28;20235;-79
2022/05/31 05:08:49;;;;;;;11.63;8.70;;;;;;;20.72;96.09;99231.22;5090329;28;20265;-81
2022/05/31 05:11:17;;;;;;;11.73;9.60;;;;;;;20.80;96.51;99228.56;5090323;28;20633;-81
2022/05/31 05:13:44;;;;;;;14.23;9.33;;;;;;;20.83;96.00;99233.41;5090307;28;20205;-79
2022/05/31 05:16:13;;;;;;;14.63;9.17;;;;;;;20.93;96.07;99233.97;5090738;28;20238;-79
2022/05/31 05:18:40;;;;;;;12.97;9.47;;;;;;;20.98;96.11;99242.06;5090215;28;20609;-81
2022/05/31 05:21:10;;;;;;;13.77;9.77;;;;;;;21.13;96.11;99238.72;5090382;28;20236;-79
2022/05/31 05:23:37;;;;;;;13.67;9.23;;;;;;;21.21;95.04;99246.44;5090409;28;20216;-81
2022/05/31 05:26:03;;;;;;;16.57;9.60;;;;;;;21.40;93.64;99250.38;5090058;28;20308;-82
2022/05/31 05:31:19;;;;;;;12.38;8.27;;;;;;;22.02;91.08;99254.44;5090089;28;20282;-80
2022/05/31 05:33:46;;;;;;;12.20;8.47;;;;;;;22.21;88.91;99259.13;5089951;28;20241;-82
2022/05/31 05:36:13;;;;;;;13.60;8.75;;;;;;;22.63;92.09;99262.84;5090110;28;20222;-80
2022/05/31 05:38:39;;;;;;;13.27;8.32;;;;;;;22.90;89.27;99265.72;5090010;28;20316;-81
2022/05/31 05:41:05;;;;;;;14.02;8.82;;;;;;;23.03;85.09;99273.66;5089900;28;20241;-82
2022/05/31 05:43:31;;;;;;;10.00;8.00;;;;;;;23.21;84.49;99268.84;5089920;28;20202;-81
2022/05/31 05:45:57;;;;;;;11.38;7.63;;;;;;;23.41;84.91;99266.34;5089928;28;20330;-81
2022/05/31 05:48:24;;;;;;;13.18;8.30;;;;;;;23.58;80.56;99272.09;5089823;28;20217;-81
2022/05/31 05:50:51;;;;;;;9.43;7.68;;;;;;;23.81;81.58;99276.31;5089596;28;20766;-82
2022/05/31 05:53:17;;;;;;;11.40;7.03;;;;;;;23.99;80.35;99274.00;5089665;28;20206;-79
2022/05/31 05:55:43;;;;;;;9.48;7.25;;;;;;;24.12;80.06;99274.06;5089817;28;20233;-81
2022/05/31 05:58:09;;;;;;;13.23;8.63;;;;;;;24.37;82.46;99268.31;5089844;28;20241;-80
2022/05/31 06:00:37;;;;;;;9.60;7.93;;;;;;;24.54;77.61;99272.22;5089764;28;20615;-79
2022/05/31 06:03:10;;;;;;;11.50;8.10;;;;;;;24.65;75.91;99272.69;5089635;28;20703;-80
2022/05/31 06:05:37;;;;;;;9.73;7.20;;;;;;;24.93;80.65;99275.97;5089400;28;20234;-80
2022/05/31 06:08:08;;;;;;;12.07;7.68;;;;;;;25.23;76.81;99280.84;5089751;28;20225;-81
2022/05/31 06:10:39;;;;;;;13.73;7.60;;;;;;;25.25;74.83;99279.63;5089303;28;20281;-80
2022/05/31 06:13:10;;;;;;;8.60;6.90;;;;;;;25.39;72.31;99269.16;5089532;28;20299;-80
2022/05/31 06:15:41;;;;;;;9.27;7.22;;;;;;;25.62;72.56;99285.22;5089245;28;20237;-82
2022/05/31 06:18:12;;;;;;;10.95;7.00;;;;;;;25.75;69.67;99276.56;5089148;28;20205;-79
2022/05/31 06:20:39;;;;;;;10.27;6.78;;;;;;;25.81;67.76;99278.38;5089398;28;20234;-79
2022/05/31 06:23:06;;;;;;;8.05;6.43;;;;;;;25.97;70.15;99267.44;5089387;28;20225;-81
2022/05/31 06:25:32;;;;;;;9.40;6.68;;;;;;;26.13;69.06;99270.66;5089243;28;20238;-81
2022/05/31 06:27:59;;;;;;;9.02;6.65;;;;;;;26.20;67.91;99266.16;5089314;28;20202;-79
2022/05/31 06:30:25;;;;;;;10.43;6.65;;;;;;;26.39;73.09;99269.72;5089174;28;20243;-79
2022/05/31 06:32:51;;;;;;;11.10;7.07;;;;;;;26.31;69.93;99272.59;5089199;28;20222;-80
2022/05/31 06:35:17;;;;;;;10.82;7.07;;;;;;;26.45;69.90;99270.72;5089184;28;20226;-79
2022/05/31 06:37:43;;;;;;;10.05;7.22;;;;;;;26.70;68.14;99276.03;5089340;28;20676;-79
2022/05/31 06:40:11;;;;;;;9.40;6.88;;;;;;;26.91;67.05;99277.50;5088903;28;20690;-79
2022/05/31 06:42:38;;;;;;;9.85;6.90;;;;;;;27.02;67.39;99268.97;5088475;28;20668;-80
2022/05/31 06:45:05;;;;;;;10.50;7.00;;;;;;;27.14;69.50;99275.16;5088840;28;20206;-80
2022/05/31 06:47:31;;;;;;;8.43;6.70;;;;;;;27.22;66.32;99281.97;5088927;28;20238;-81
2022/05/31 06:49:57;;;;;;;7.63;6.30;;;;;;;27.42;63.05;99282.59;5089428;28;20255;-81
2022/05/31 06:57:53;;;;;;;7.60;6.80;;;;;;;27.69;62.51;99274.47;5088951;28;20279;-80
2022/05/31 07:00:21;;;;;;;9.85;7.07;;;;;;;27.88;65.26;99267.44;5088775;28;20214;-80
2022/05/31 07:02:48;;;;;;;10.45;6.60;;;;;;;28.04;63.51;99271.28;5089059;28;20213;-78
2022/05/31 07:05:15;;;;;;;15.10;7.45;;;;;;;28.25;62.92;99267.44;5088657;28;20214;-79
2022/05/31 07:07:41;;;;;;;10.60;6.25;;;;;;;28.34;61.09;99260.84;5088899;28;20206;-78
2022/05/31 07:10:09;;;;;;;9.07;5.97;;;;;;;28.48;58.45;99272.81;5088654;28;20271;-79
2022/05/31 07:12:36;;;;;;;8.60;6.15;;;;;;;28.63;64.25;99270.56;5088520;28;20240;-79
2022/05/31 07:15:02;;;;;;;9.43;5.90;;;;;;;28.74;63.53;99270.81;5088644;28;20229;-81
2022/05/31 07:17:29;;;;;;;9.93;6.22;;;;;;;28.77;58.43;99275.63;5088399;28;20233;-77
2022/05/31 07:19:55;;;;;;;10.45;6.28;;;;;;;29.02;66.93;99271.03;5088257;28;20298;-79
2022/05/31 07:22:21;;;;;;;10.70;7.05;;;;;;;29.04;58.59;99271.63;5088395;28;20234;-77
2022/05/31 07:24:47;;;;;;;8.98;6.20;;;;;;;28.93;57.87;99269.72;5088562;28;20218;-81
2022/05/31 07:27:14;;;;;;;9.05;6.15;;;;;;;28.85;57.85;99280.56;5088648;28;20234;-78
2022/05/31 07:29:41;;;;;;;11.20;5.72;;;;;;;28.89;57.55;99279.13;5088533;28;20304;-78
2022/05/31 07:32:08;;;;;;;7.40;6.03;;;;;;;29.13;63.84;99284.44;5088160;28;20279;-81
2022/05/31 07:34:35;;;;;;;9.15;5.50;;;;;;;29.19;58.25;99281.72;5088194;28;20225;-78
2022/05/31 07:37:01;;;;;;;7.47;5.80;;;;;;;29.45;62.53;99277.03;5088410;28;20230;-81
2022/05/31 07:39:27;;;;;;;7.70;5.50;;;;;;;29.42;58.19;99283.56;5088169;28;20230;-81
2022/05/31 07:41:54;;;;;;;7.72;4.78;;;;;;;29.70;57.27;99272.34;5088073;28;20250;-78
2022/05/31 07:44:21;;;;;;;6.93;4.90;;;;;;;29.97;55.70;99285.81;5087907;28;20209;-81
2022/05/31 07:46:49;;;;;;;6.32;4.97;;;;;;;30.19;55.72;99287.81;5088775;28;20226;-79
2022/05/31 07:49:15;;;;;;;7.60;5.78;;;;;;;30.45;57.33;99284.66;5088567;28;20205;-81
2022/05/31 07:51:42;;;;;;;9.20;5.15;;;;;;;30.22;52.07;99282.09;5088579;28;20257;-81
2022/05/31 07:54:08;;;;;;;8.50;5.68;;;;;;;30.55;59.49;99280.63;5088102;28;20698;-78
2022/05/31 07:56:34;;;;;;;8.73;5.90;;;;;;;30.73;55.36;99283.03;5091104;28;20229;-77
2022/05/31 07:59:00;;;;;;;6.70;5.32;;;;;;;30.72;52.23;99283.28;5091637;28;20222;-78
2022/05/31 08:01:26;;;;;;;7.90;5.10;;;;;;;30.51;50.85;99279.47;5091552;28;20229;-80
2022/05/31 08:03:54;;;;;;;6.78;5.10;;;;;;;30.74;51.08;99283.84;5091586;28;20616;-81
2022/05/31 08:06:22;;;;;;;8.93;5.40;;;;;;;30.88;52.31;99288.59;5091511;28;20234;-80
2022/05/31 08:08:49;;;;;;;9.10;5.55;;;;;;;31.02;52.50;99288.31;5091448;28;20213;-78
2022/05/31 08:11:18;;;;;;;8.00;5.25;;;;;;;30.63;50.36;99291.59;5091401;28;20290;-78
2022/05/31 08:13:45;;;;;;;7.10;5.57;;;;;;;30.78;51.30;99290.25;5091292;28;20202;-80
2022/05/31 08:16:13;;;;;;;7.03;5.43;;;;;;;30.79;52.52;99290.03;5091487;28;20528;-77
2022/05/31 08:18:42;;;;;;;9.52;5.60;;;;;;;30.62;54.40;99291.81;5091112;28;20226;-79
2022/05/31 08:21:11;;;;;;;7.47;5.63;;;;;;;30.58;51.68;99293.34;5091299;28;20284;-80
2022/05/31 08:23:38;;;;;;;7.93;5.95;;;;;;;30.84;51.04;99289.34;5091304;28;20753;-79
2022/05/31 08:26:04;;;;;;;8.90;6.20;;;;;;;30.77;50.54;99294.72;5091000;28;20287;-78
2022/05/31 08:28:31;;;;;;;8.75;6.30;;;;;;;31.00;52.93;99293.03;5091223;28;20259;-80
2022/05/31 08:30:59;;;;;;;10.38;6.78;;;;;;;31.17;48.89;99299.09;5091353;28;20230;-77
2022/05/31 08:33:27;;;;;;;10.93;6.60;;;;;;;31.17;47.60;99293.03;5091011;28;20221;-80
2022/05/31 08:35:53;;;;;;;8.70;6.18;;;;;;;30.68;51.51;99288.22;5091082;28;20737;-77
2022/05/31 08:38:20;;;;;;;8.63;6.30;;;;;;;30.84;48.47;99289.34;5091434;28;20684;-77
2022/05/31 08:40:58;;;;;;;9.18;6.60;;;;;;;31.15;49.61;99289.81;5090744;28;20237;-78
2022/05/31 08:43:33;;;;;;;11.63;6.63;;;;;;;31.37;54.78;99288.09;5091137;28;20330;-80
2022/05/31 08:46:08;;;;;;;9.13;5.70;;;;;;;31.75;51.41;99292.56;5091040;28;20249;-78
2022/05/31 08:48:46;;;;;;;8.57;5.80;;;;;;;31.69;54.60;99285.63;5091029;28;20687;-77
2022/05/31 08:57:04;;;;;;;8.68;4.95;;;;;;;31.58;48.38;99279.38;5090995;28;20726;-80
2022/05/31 08:59:36;;;;;;;5.30;4.80;;;;;;;31.77;47.49;99282.56;5090690;28;20226;-81
2022/05/31 09:02:07;;;;;;;13.20;5.53;;;;;;;31.91;47.42;99283.03;5090620;28;20238;-81
2022/05/31 09:04:38;;;;;;;8.32;4.85;;;;;;;31.88;51.76;99280.03;5090496;28;20210;-77
2022/05/31 09:07:08;;;;;;;7.00;4.60;;;;;;;31.85;49.83;99286.59;5090058;28;20283;-80
2022/05/31 09:09:40;;;;;;;8.93;4.82;;;;;;;32.02;48.81;99274.16;5090392;28;20214;-81
2022/05/31 09:12:26;;;;;;;9.82;4.90;;;;;;;32.45;48.62;99277.03;5090206;28;20246;-77
2022/05/31 09:15:01;;;;;;;4.90;4.30;;;;;;;32.57;44.64;99280.31;5090154;28;20692;-77
2022/05/31 09:17:36;;;;;;;4.70;4.03;;;;;;;32.82;44.62;99281.63;5090620;28;20681;-79
2022/05/31 09:20:06;;;;;;;6.60;3.58;;;;;;;32.84;43.53;99279.50;5101906;28;20292;-80
2022/05/31 09:22:32;;;;;;;4.30;3.35;;;;;;;32.82;39.79;99276.31;5092300;28;20800;-78
2022/05/31 09:25:00;;;;;;;4.63;3.50;;;;;;;32.98;40.91;99279.88;5090511;28;20214;-80
2022/05/31 09:27:38;;;;;;;5.30;4.05;;;;;;;32.68;42.11;99271.44;5090368;28;20230;-77
2022/05/31 09:30:10;;;;;;;4.32;3.90;;;;;;;32.84;44.47;99275.03;5090000;28;20218;-80
2022/05/31 09:32:48;;;;;;;5.72;4.88;;;;;;;32.94;46.25;99274.28;5090122;28;20323;-81
2022/05/31 09:35:36;;;;;;;8.10;5.10;;;;;;;32.93;44.45;99272.72;5090349;28;20220;-81
2022/05/31 09:38:19;;;;;;;8.73;5.07;;;;;;;33.26;49.66;99270.84;5090227;28;20706;-81
2022/05/31 09:40:48;;;;;;;7.18;4.75;;;;;;;33.14;49.83;99269.19;5090040;28;20620;-80
2022/05/31 09:43:22;;;;;;;7.25;4.90;;;;;;;32.75;41.53;99270.41;5089882;28;20210;-82
2022/05/31 09:45:54;;;;;;;6.88;4.63;;;;;;;32.93;44.67;99267.41;5089726;28;20229;-77
2022/05/31 09:48:20;;;;;;;6.82;4.90;;;;;;;33.20;41.84;99266.56;5089970;28;20620;-77
2022/05/31 09:50:46;;;;;;;8.40;4.60;;;;;;;33.16;42.73;99260.16;5089694;28;20237;-81
2022/05/31 09:59:04;;;;;;;6.07;4.55;;;;;;;32.88;45.41;99254.91;5089762;28;20307;-81
2022/05/31 10:01:31;;;;;;;7.82;4.22;;;;;;;33.12;45.00;99255.38;5089945;28;20230;-80
2022/05/31 10:04:07;;;;;;;6.90;4.32;;;;;;;32.84;42.20;99253.84;5090046;28;20209;-77
2022/05/31 10:06:33;;;;;;;9.60;4.65;;;;;;;33.07;41.88;99259.84;5089568;28;20264;-81
2022/05/31 10:09:15;;;;;;;9.45;5.30;;;;;;;33.11;42.90;99251.16;5089812;28;20214;-77
2022/05/31 10:11:45;;;;;;;7.32;4.75;;;;;;;33.26;47.06;99254.94;5089308;28;20241;-78
2022/05/31 10:14:23;;;;;;;8.73;5.13;;;;;;;33.35;44.11;99254.19;5089696;28;20229;-78
2022/05/31 10:16:49;;;;;;;6.47;4.43;;;;;;;33.31;41.45;99247.03;5089313;28;20238;-77
2022/05/31 10:19:22;;;;;;;6.18;4.18;;;;;;;33.29;41.03;99244.63;5088130;28;20724;-78
2022/05/31 10:21:48;;;;;;;6.57;4.18;;;;;;;33.54;44.47;99241.34;5089147;28;20230;-81
2022/05/31 10:24:17;;;;;;;5.78;3.85;;;;;;;33.55;42.25;99242.16;5089799;28;20213;-81
2022/05/31 10:26:46;;;;;;;9.18;4.05;;;;;;;33.63;42.64;99246.97;5089313;28;20691;-78
2022/05/31 10:29:17;;;;;;;6.05;3.70;;;;;;;33.82;39.44;99247.28;5089546;28;20214;-81
2022/05/31 10:31:46;;;;;;;9.40;3.95;;;;;;;33.81;40.82;99240.41;5089505;28;20233;-78
2022/05/31 10:34:36;;;;;;;5.85;3.80;;;;;;;33.93;39.41;99238.31;5089396;28;20586;-81
2022/05/31 10:37:05;;;;;;;5.88;3.42;;;;;;;33.63;38.17;99243.50;5088892;28;20739;-77
2022/05/31 10:39:39;;;;;;;6.00;3.95;;;;;;;33.47;40.06;99246.03;5089020;28;20241;-81
2022/05/31 10:42:10;;;;;;;5.55;3.70;;;;;;;33.31;38.09;99237.22;5088743;28;20617;-80
2022/05/31 10:44:40;;;;;;;4.68;3.60;;;;;;;33.43;41.25;99231.72;5089177;28;20218;-81
2022/05/31 10:47:10;;;;;;;7.45;3.97;;;;;;;33.14;43.04;99232.09;5088854;28;20234;-81
2022/05/31 10:49:38;;;;;;;5.82;3.53;;;;;;;33.29;42.16;99227.94;5089217;28;20206;-81
2022/05/31 10:52:21;;;;;;;4.50;3.53;;;;;;;33.29;41.85;99225.28;5088651;28;20226;-77
2022/05/31 10:55:01;;;;;;;5.97;4.30;;;;;;;33.35;43.55;99222.41;5088731;28;20231;-78
2022/05/31 10:57:41;;;;;;;6.75;4.20;;;;;;;33.27;41.58;99216.78;5089214;28;20234;-78
2022/05/31 11:00:12;;;;;;;9.38;4.40;;;;;;;33.24;45.88;99219.94;5088505;28;20229;-78
2022/05/31 11:02:57;;;;;;;3.88;3.38;;;;;;;33.36;44.09;99213.38;5088875;28;20222;-79
2022/05/31 11:05:32;;;;;;;4.22;3.53;;;;;;;33.55;42.13;99211.13;5088507;28;20210;-80
2022/05/31 11:13:59;;;;;;;9.45;4.47;;;;;;;32.54;44.29;99201.41;5088662;28;20201;-80
2022/05/31 11:16:39;;;;;;;5.68;3.92;;;;;;;32.55;43.70;99192.44;5088389;28;20225;-80
2022/05/31 11:19:21;;;;;;;6.43;3.83;;;;;;;32.38;45.41;99197.81;5088314;28;20240;-78
2022/05/31 11:22:00;;;;;;;4.82;3.70;;;;;;;32.38;44.55;99199.66;5088351;28;20303;-79
2022/05/31 11:24:46;;;;;;;7.25;3.90;;;;;;;32.35;42.67;99187.72;5088691;28;20210;-78
2022/05/31 11:27:28;;;;;;;5.30;4.20;;;;;;;32.77;42.68;99183.59;5088430;28;20230;-81
2022/05/31 11:30:07;;;;;;;6.65;3.67;;;;;;;32.84;43.19;99186.81;5090299;28;20720;-78
2022/05/31 11:32:47;;;;;;;5.30;3.75;;;;;;;33.16;46.23;99178.81;5091994;28;20233;-81
2022/05/31 11:35:25;;;;;;;5.65;3.75;;;;;;;32.94;41.40;99173.66;5091957;28;20209;-82
2022/05/31 11:38:01;;;;;;;5.35;3.53;;;;;;;32.73;43.31;99177.22;5091982;28;20724;-78
2022/05/31 11:40:45;;;;;;;6.60;3.72;;;;;;;32.43;41.86;99173.22;5091682;28;20233;-78
2022/05/31 11:43:34;;;;;;;6.82;3.70;;;;;;;32.33;44.25;99163.38;5092160;28;20217;-82
2022/05/31 11:46:09;;;;;;;5.10;3.28;;;;;;;32.23;44.20;99153.50;5091972;28;20625;-78
2022/05/31 11:48:59;;;;;;;6.25;3.30;;;;;;;32.41;45.74;99159.47;5091892;28;20236;-77
2022/05/31 11:51:40;;;;;;;4.53;3.17;;;;;;;32.38;40.71;99154.69;5091528;28;20256;-77
2022/05/31 11:54:38;;;;;;;5.32;3.30;;;;;;;32.31;43.01;99151.44;5091430;28;20218;-78
2022/05/31 11:57:24;;;;;;;5.55;3.10;;;;;;;32.08;45.96;99150.69;5049199;28;20241;-77
2022/05/31 11:59:56;;;;;;;4.43;2.90;;;;;;;32.18;41.54;99140.22;5091627;28;20236;-78
2022/05/31 12:02:30;;;;;;;5.60;3.20;;;;;;;31.97;41.18;99138.41;5091219;28;20237;-82
2022/05/31 12:05:03;;;;;;;5.78;3.00;;;;;;;32.20;41.85;99146.06;5091663;28;20301;-81